VAR weather

Public forecast

Using degrees Celsius for public forecast. Weather courtesy of forecast.io.

Current aviation weather report (METAR) for Varna Airport

Retrieved 2020/08/10 08:00 UTC (5 minutes ago):

LBWN 100800Z 04011KT 010V070 9999 FEW048 31/10 Q1013 NOSIG

Aviation forecast (TAF) for Varna Airport

Retrieved 2020/08/10 06:18 UTC (2 hours ago):

TAF LBWN 100500Z 1006/1106 35010KT CAVOK BECMG 1009/1011 10014KT BECMG 1018/1020 VRB04KT